sensor_id;sensor_type;location;lat;lon;timestamp;pressure;altitude;pressure_sealevel;temperature;humidity
57572;BME280;44459;43.522;24.470;2023-04-07T00:00:58;99997.78;;;3.29;70.11
57572;BME280;44459;43.522;24.470;2023-04-07T00:03:23;99988.00;;;3.22;70.68
57572;BME280;44459;43.522;24.470;2023-04-07T00:05:49;99986.97;;;3.17;70.73
57572;BME280;44459;43.522;24.470;2023-04-07T00:08:14;99985.31;;;3.19;70.45
57572;BME280;44459;43.522;24.470;2023-04-07T00:10:40;99981.75;;;3.17;70.52
57572;BME280;44459;43.522;24.470;2023-04-07T00:13:06;99989.47;;;3.14;70.96
57572;BME280;44459;43.522;24.470;2023-04-07T00:15:31;99992.97;;;3.14;71.46
57572;BME280;44459;43.522;24.470;2023-04-07T00:17:57;99985.09;;;3.13;71.24
57572;BME280;44459;43.522;24.470;2023-04-07T00:20:22;99991.06;;;3.09;72.07
57572;BME280;44459;43.522;24.470;2023-04-07T00:22:48;99982.34;;;3.08;71.86
57572;BME280;44459;43.522;24.470;2023-04-07T00:25:13;99991.91;;;3.08;72.05
57572;BME280;44459;43.522;24.470;2023-04-07T00:27:39;99988.06;;;2.96;72.04
57572;BME280;44459;43.522;24.470;2023-04-07T00:30:05;99995.16;;;3.00;72.57
57572;BME280;44459;43.522;24.470;2023-04-07T00:32:31;99982.66;;;2.90;72.51
57572;BME280;44459;43.522;24.470;2023-04-07T00:34:56;99975.41;;;2.82;72.91
57572;BME280;44459;43.522;24.470;2023-04-07T00:37:22;99981.75;;;2.90;73.56
57572;BME280;44459;43.522;24.470;2023-04-07T00:39:49;99980.72;;;2.85;72.68
57572;BME280;44459;43.522;24.470;2023-04-07T00:42:15;99987.72;;;2.86;73.07
57572;BME280;44459;43.522;24.470;2023-04-07T00:44:40;99990.16;;;2.81;73.47
57572;BME280;44459;43.522;24.470;2023-04-07T00:47:06;99981.41;;;2.79;73.65
57572;BME280;44459;43.522;24.470;2023-04-07T00:49:31;99989.50;;;2.87;73.59
57572;BME280;44459;43.522;24.470;2023-04-07T00:51:57;99987.78;;;2.87;73.99
57572;BME280;44459;43.522;24.470;2023-04-07T00:54:23;99992.00;;;2.84;73.46
57572;BME280;44459;43.522;24.470;2023-04-07T00:56:49;99987.69;;;2.84;73.30
57572;BME280;44459;43.522;24.470;2023-04-07T00:59:15;99986.72;;;2.82;73.66
57572;BME280;44459;43.522;24.470;2023-04-07T01:04:29;99988.59;;;2.86;72.75
57572;BME280;44459;43.522;24.470;2023-04-07T01:07:03;99986.78;;;2.84;72.79
57572;BME280;44459;43.522;24.470;2023-04-07T01:09:36;99977.19;;;2.83;73.38
57572;BME280;44459;43.522;24.470;2023-04-07T01:12:06;99984.19;;;2.84;73.19
57572;BME280;44459;43.522;24.470;2023-04-07T01:14:41;99980.50;;;2.77;73.41
57572;BME280;44459;43.522;24.470;2023-04-07T01:17:11;99985.00;;;2.83;73.43
57572;BME280;44459;43.522;24.470;2023-04-07T01:19:47;99980.72;;;2.85;74.26
57572;BME280;44459;43.522;24.470;2023-04-07T01:22:22;99973.59;;;2.79;74.12
57572;BME280;44459;43.522;24.470;2023-04-07T01:30:17;99969.00;;;2.71;75.02
57572;BME280;44459;43.522;24.470;2023-04-07T01:32:46;99968.00;;;2.67;75.06
57572;BME280;44459;43.522;24.470;2023-04-07T01:35:15;99975.69;;;2.64;75.38
57572;BME280;44459;43.522;24.470;2023-04-07T01:37:42;99965.22;;;2.63;75.20
57572;BME280;44459;43.522;24.470;2023-04-07T01:40:11;99972.09;;;2.61;75.19
57572;BME280;44459;43.522;24.470;2023-04-07T01:42:38;99966.03;;;2.60;75.51
57572;BME280;44459;43.522;24.470;2023-04-07T01:45:04;99975.69;;;2.64;75.55
57572;BME280;44459;43.522;24.470;2023-04-07T01:47:31;99970.28;;;2.58;76.29
57572;BME280;44459;43.522;24.470;2023-04-07T01:50:00;99965.78;;;2.54;76.02
57572;BME280;44459;43.522;24.470;2023-04-07T01:52:29;99976.13;;;2.51;76.33
57572;BME280;44459;43.522;24.470;2023-04-07T01:54:55;99969.28;;;2.54;76.58
57572;BME280;44459;43.522;24.470;2023-04-07T01:57:22;99965.69;;;2.51;76.77
57572;BME280;44459;43.522;24.470;2023-04-07T01:59:47;99969.00;;;2.45;76.91
57572;BME280;44459;43.522;24.470;2023-04-07T02:02:12;99963.97;;;2.51;77.73
57572;BME280;44459;43.522;24.470;2023-04-07T02:04:54;99969.97;;;2.49;77.80
57572;BME280;44459;43.522;24.470;2023-04-07T02:07:40;99963.06;;;2.49;77.67
57572;BME280;44459;43.522;24.470;2023-04-07T02:10:10;99970.66;;;2.43;78.42
57572;BME280;44459;43.522;24.470;2023-04-07T02:12:37;99972.38;;;2.43;78.50
57572;BME280;44459;43.522;24.470;2023-04-07T02:15:05;99971.50;;;2.42;78.37
57572;BME280;44459;43.522;24.470;2023-04-07T02:17:32;99974.94;;;2.41;78.51
57572;BME280;44459;43.522;24.470;2023-04-07T02:19:59;99968.94;;;2.44;79.00
57572;BME280;44459;43.522;24.470;2023-04-07T02:22:27;99976.84;;;2.47;79.24
57572;BME280;44459;43.522;24.470;2023-04-07T02:24:53;99968.13;;;2.46;78.91
57572;BME280;44459;43.522;24.470;2023-04-07T02:27:18;99972.63;;;2.50;80.09
57572;BME280;44459;43.522;24.470;2023-04-07T02:29:44;99970.88;;;2.49;79.33
57572;BME280;44459;43.522;24.470;2023-04-07T02:32:10;99963.09;;;2.51;79.77
57572;BME280;44459;43.522;24.470;2023-04-07T02:34:35;99971.97;;;2.56;79.47
57572;BME280;44459;43.522;24.470;2023-04-07T02:37:01;99967.50;;;2.53;79.86
57572;BME280;44459;43.522;24.470;2023-04-07T02:39:26;99974.66;;;2.59;79.66
57572;BME280;44459;43.522;24.470;2023-04-07T02:41:52;99972.88;;;2.58;79.33
57572;BME280;44459;43.522;24.470;2023-04-07T02:44:17;99968.63;;;2.60;79.39
57572;BME280;44459;43.522;24.470;2023-04-07T02:46:42;99967.88;;;2.64;79.07
57572;BME280;44459;43.522;24.470;2023-04-07T02:49:08;99973.09;;;2.64;78.97
57572;BME280;44459;43.522;24.470;2023-04-07T02:51:33;99980.91;;;2.64;78.99
57572;BME280;44459;43.522;24.470;2023-04-07T02:53:58;99981.06;;;2.69;79.23
57572;BME280;44459;43.522;24.470;2023-04-07T02:56:24;99979.41;;;2.71;79.06
57572;BME280;44459;43.522;24.470;2023-04-07T02:58:50;99978.44;;;2.69;79.02
57572;BME280;44459;43.522;24.470;2023-04-07T03:01:15;99979.44;;;2.72;79.02
57572;BME280;44459;43.522;24.470;2023-04-07T03:03:41;99982.13;;;2.74;79.37
57572;BME280;44459;43.522;24.470;2023-04-07T03:06:09;99978.81;;;2.79;79.17
57572;BME280;44459;43.522;24.470;2023-04-07T03:08:34;99990.41;;;2.89;78.68
57572;BME280;44459;43.522;24.470;2023-04-07T03:11:00;99986.09;;;2.89;78.82
57572;BME280;44459;43.522;24.470;2023-04-07T03:13:25;99988.84;;;2.94;79.52
57572;BME280;44459;43.522;24.470;2023-04-07T03:15:50;99983.47;;;2.89;79.25
57572;BME280;44459;43.522;24.470;2023-04-07T03:18:16;99988.13;;;2.98;79.37
57572;BME280;44459;43.522;24.470;2023-04-07T03:20:42;99982.09;;;3.00;79.51
57572;BME280;44459;43.522;24.470;2023-04-07T03:23:08;99988.34;;;3.05;78.97
57572;BME280;44459;43.522;24.470;2023-04-07T03:25:34;99984.06;;;3.08;78.89
57572;BME280;44459;43.522;24.470;2023-04-07T03:27:59;99995.59;;;3.14;78.81
57572;BME280;44459;43.522;24.470;2023-04-07T03:30:25;99992.09;;;3.14;78.74
57572;BME280;44459;43.522;24.470;2023-04-07T03:32:51;99986.97;;;3.17;78.63
57572;BME280;44459;43.522;24.470;2023-04-07T03:35:17;99997.53;;;3.21;78.18
57572;BME280;44459;43.522;24.470;2023-04-07T03:37:42;99997.72;;;3.27;78.84
57572;BME280;44459;43.522;24.470;2023-04-07T03:40:08;99997.06;;;3.34;79.27
57572;BME280;44459;43.522;24.470;2023-04-07T03:42:33;100006.53;;;3.31;77.58
57572;BME280;44459;43.522;24.470;2023-04-07T03:44:59;100001.50;;;3.37;78.29
57572;BME280;44459;43.522;24.470;2023-04-07T03:47:24;100000.66;;;3.38;77.68
57572;BME280;44459;43.522;24.470;2023-04-07T03:49:50;100005.16;;;3.42;77.55
57572;BME280;44459;43.522;24.470;2023-04-07T03:52:15;99994.72;;;3.42;75.73
57572;BME280;44459;43.522;24.470;2023-04-07T03:54:41;100006.38;;;3.53;75.44
57572;BME280;44459;43.522;24.470;2023-04-07T03:57:06;100014.38;;;3.59;74.56
57572;BME280;44459;43.522;24.470;2023-04-07T03:59:32;100013.53;;;3.60;75.00
57572;BME280;44459;43.522;24.470;2023-04-07T04:01:57;100019.84;;;3.68;74.40
57572;BME280;44459;43.522;24.470;2023-04-07T04:04:23;100020.94;;;3.75;74.14
57572;BME280;44459;43.522;24.470;2023-04-07T04:06:49;100028.00;;;3.79;74.12
57572;BME280;44459;43.522;24.470;2023-04-07T04:09:15;100031.56;;;3.81;74.58
57572;BME280;44459;43.522;24.470;2023-04-07T04:11:40;100026.34;;;3.81;75.27
57572;BME280;44459;43.522;24.470;2023-04-07T04:14:06;100040.22;;;3.80;75.26
57572;BME280;44459;43.522;24.470;2023-04-07T04:16:31;100039.34;;;3.79;75.30
57572;BME280;44459;43.522;24.470;2023-04-07T04:18:59;100043.81;;;3.83;74.59
57572;BME280;44459;43.522;24.470;2023-04-07T04:21:25;100049.19;;;3.89;75.01
57572;BME280;44459;43.522;24.470;2023-04-07T04:23:51;100043.16;;;3.90;74.96
57572;BME280;44459;43.522;24.470;2023-04-07T04:26:17;100047.63;;;3.94;74.93
57572;BME280;44459;43.522;24.470;2023-04-07T04:28:42;100059.06;;;3.98;75.09
57572;BME280;44459;43.522;24.470;2023-04-07T04:31:08;100056.44;;;3.98;74.66
57572;BME280;44459;43.522;24.470;2023-04-07T04:33:33;100066.91;;;3.99;75.67
57572;BME280;44459;43.522;24.470;2023-04-07T04:35:58;100059.94;;;3.98;75.69
57572;BME280;44459;43.522;24.470;2023-04-07T04:38:24;100057.03;;;3.89;75.50
57572;BME280;44459;43.522;24.470;2023-04-07T04:40:49;100062.41;;;3.94;76.20
57572;BME280;44459;43.522;24.470;2023-04-07T04:43:15;100065.06;;;3.95;76.34
57572;BME280;44459;43.522;24.470;2023-04-07T04:45:40;100067.78;;;3.98;76.36
57572;BME280;44459;43.522;24.470;2023-04-07T04:48:07;100065.91;;;3.94;76.87
57572;BME280;44459;43.522;24.470;2023-04-07T04:50:33;100076.44;;;3.97;75.59
57572;BME280;44459;43.522;24.470;2023-04-07T04:53:00;100073.91;;;4.00;76.80
57572;BME280;44459;43.522;24.470;2023-04-07T04:55:26;100078.31;;;4.01;76.36
57572;BME280;44459;43.522;24.470;2023-04-07T04:57:51;100081.81;;;4.02;76.86
57572;BME280;44459;43.522;24.470;2023-04-07T05:00:17;100082.63;;;4.01;77.29
57572;BME280;44459;43.522;24.470;2023-04-07T05:02:43;100086.00;;;3.97;76.59
57572;BME280;44459;43.522;24.470;2023-04-07T05:05:08;100087.78;;;3.98;77.07
57572;BME280;44459;43.522;24.470;2023-04-07T05:07:33;100083.56;;;4.03;76.34
57572;BME280;44459;43.522;24.470;2023-04-07T05:09:59;100090.69;;;4.09;75.86
57572;BME280;44459;43.522;24.470;2023-04-07T05:12:25;100105.47;;;4.08;75.75
57572;BME280;44459;43.522;24.470;2023-04-07T05:14:51;100096.91;;;4.12;75.48
57572;BME280;44459;43.522;24.470;2023-04-07T05:17:16;100107.44;;;4.15;75.42
57572;BME280;44459;43.522;24.470;2023-04-07T05:19:42;100106.72;;;4.21;75.34
57572;BME280;44459;43.522;24.470;2023-04-07T05:22:07;100111.94;;;4.21;75.92
57572;BME280;44459;43.522;24.470;2023-04-07T05:24:33;100105.66;;;4.14;75.24
57572;BME280;44459;43.522;24.470;2023-04-07T05:26:58;100112.03;;;4.24;75.49
57572;BME280;44459;43.522;24.470;2023-04-07T05:29:25;100113.66;;;4.20;75.45
57572;BME280;44459;43.522;24.470;2023-04-07T05:31:51;100108.50;;;4.22;76.55
57572;BME280;44459;43.522;24.470;2023-04-07T05:34:16;100117.44;;;4.30;76.09
57572;BME280;44459;43.522;24.470;2023-04-07T05:36:42;100105.38;;;4.33;76.38
57572;BME280;44459;43.522;24.470;2023-04-07T05:39:07;100108.88;;;4.34;75.72
57572;BME280;44459;43.522;24.470;2023-04-07T05:41:32;100105.44;;;4.36;75.63
57572;BME280;44459;43.522;24.470;2023-04-07T05:43:58;100112.69;;;4.46;76.42
57572;BME280;44459;43.522;24.470;2023-04-07T05:46:23;100115.44;;;4.51;75.81
57572;BME280;44459;43.522;24.470;2023-04-07T05:48:49;100115.75;;;4.62;76.13
57572;BME280;44459;43.522;24.470;2023-04-07T05:51:14;100124.66;;;4.68;76.77
57572;BME280;44459;43.522;24.470;2023-04-07T05:53:40;100113.66;;;4.81;77.05
57572;BME280;44459;43.522;24.470;2023-04-07T05:56:05;100122.00;;;4.99;77.24
57572;BME280;44459;43.522;24.470;2023-04-07T05:58:31;100125.00;;;5.15;76.37
57572;BME280;44459;43.522;24.470;2023-04-07T06:00:57;100114.00;;;5.28;75.33
57572;BME280;44459;43.522;24.470;2023-04-07T06:03:22;100116.03;;;5.38;74.95
57572;BME280;44459;43.522;24.470;2023-04-07T06:05:47;100116.16;;;5.44;72.86
57572;BME280;44459;43.522;24.470;2023-04-07T06:08:13;100117.16;;;5.49;71.86
57572;BME280;44459;43.522;24.470;2023-04-07T06:10:39;100120.63;;;5.48;69.13
57572;BME280;44459;43.522;24.470;2023-04-07T06:13:06;100126.84;;;5.51;67.66
57572;BME280;44459;43.522;24.470;2023-04-07T06:15:31;100122.44;;;5.50;67.22
57572;BME280;44459;43.522;24.470;2023-04-07T06:17:57;100132.91;;;5.50;67.80
57572;BME280;44459;43.522;24.470;2023-04-07T06:20:22;100130.44;;;5.56;66.93
57572;BME280;44459;43.522;24.470;2023-04-07T06:22:48;100133.78;;;5.51;66.81
57572;BME280;44459;43.522;24.470;2023-04-07T06:25:13;100131.13;;;5.49;66.92
57572;BME280;44459;43.522;24.470;2023-04-07T06:27:39;100128.69;;;5.57;67.43
57572;BME280;44459;43.522;24.470;2023-04-07T06:30:05;100139.03;;;5.51;66.90
57572;BME280;44459;43.522;24.470;2023-04-07T06:32:30;100132.06;;;5.51;67.88
57572;BME280;44459;43.522;24.470;2023-04-07T06:34:57;100136.56;;;5.57;67.07
57572;BME280;44459;43.522;24.470;2023-04-07T06:37:22;100141.16;;;5.66;68.47
57572;BME280;44459;43.522;24.470;2023-04-07T06:39:49;100144.63;;;5.66;66.88
57572;BME280;44459;43.522;24.470;2023-04-07T06:42:15;100135.97;;;5.69;67.53
57572;BME280;44459;43.522;24.470;2023-04-07T06:44:40;100138.66;;;5.72;67.10
57572;BME280;44459;43.522;24.470;2023-04-07T06:47:05;100147.56;;;5.78;66.26
57572;BME280;44459;43.522;24.470;2023-04-07T06:49:31;100146.72;;;5.81;66.52
57572;BME280;44459;43.522;24.470;2023-04-07T06:51:57;100146.59;;;5.76;66.54
57572;BME280;44459;43.522;24.470;2023-04-07T06:54:22;100149.41;;;5.82;66.65
57572;BME280;44459;43.522;24.470;2023-04-07T06:56:47;100163.50;;;5.87;66.94
57572;BME280;44459;43.522;24.470;2023-04-07T06:59:13;100162.78;;;5.94;66.89
57572;BME280;44459;43.522;24.470;2023-04-07T07:01:38;100162.94;;;6.00;66.14
57572;BME280;44459;43.522;24.470;2023-04-07T07:04:04;100172.38;;;5.94;66.32
57572;BME280;44459;43.522;24.470;2023-04-07T07:06:32;100173.28;;;5.94;65.09
57572;BME280;44459;43.522;24.470;2023-04-07T07:08:58;100173.56;;;6.06;66.17
57572;BME280;44459;43.522;24.470;2023-04-07T07:11:24;100166.66;;;6.10;64.92
57572;BME280;44459;43.522;24.470;2023-04-07T07:13:50;100168.28;;;6.05;64.95
57572;BME280;44459;43.522;24.470;2023-04-07T07:16:15;100167.63;;;6.15;65.52
57572;BME280;44459;43.522;24.470;2023-04-07T07:18:41;100170.31;;;6.17;65.14
57572;BME280;44459;43.522;24.470;2023-04-07T07:21:06;100174.78;;;6.21;64.54
57572;BME280;44459;43.522;24.470;2023-04-07T07:23:32;100175.66;;;6.21;65.55
57572;BME280;44459;43.522;24.470;2023-04-07T07:25:58;100185.31;;;6.24;66.20
57572;BME280;44459;43.522;24.470;2023-04-07T07:28:24;100178.28;;;6.21;64.40
57572;BME280;44459;43.522;24.470;2023-04-07T07:30:49;100200.09;;;6.22;65.09
57572;BME280;44459;43.522;24.470;2023-04-07T07:33:15;100188.13;;;6.31;66.20
57572;BME280;44459;43.522;24.470;2023-04-07T07:35:40;100191.09;;;6.48;65.32
57572;BME280;44459;43.522;24.470;2023-04-07T07:38:06;100195.81;;;6.63;63.59
57572;BME280;44459;43.522;24.470;2023-04-07T07:40:32;100193.09;;;6.59;63.96
57572;BME280;44459;43.522;24.470;2023-04-07T07:42:58;100198.59;;;6.72;63.12
57572;BME280;44459;43.522;24.470;2023-04-07T07:45:24;100192.69;;;6.82;62.96
57572;BME280;44459;43.522;24.470;2023-04-07T07:47:49;100183.31;;;6.94;63.44
57572;BME280;44459;43.522;24.470;2023-04-07T07:50:15;100186.41;;;7.19;64.80
57572;BME280;44459;43.522;24.470;2023-04-07T07:52:40;100193.44;;;7.20;61.14
57572;BME280;44459;43.522;24.470;2023-04-07T07:55:06;100189.28;;;7.31;61.22
57572;BME280;44459;43.522;24.470;2023-04-07T07:57:32;100187.25;;;7.66;60.33
57572;BME280;44459;43.522;24.470;2023-04-07T07:59:57;100182.31;;;7.85;61.39
57572;BME280;44459;43.522;24.470;2023-04-07T08:02:23;100190.75;;;8.19;60.21
57572;BME280;44459;43.522;24.470;2023-04-07T08:04:53;100191.34;;;8.61;59.55
57572;BME280;44459;43.522;24.470;2023-04-07T08:07:19;100195.13;;;8.80;57.67
57572;BME280;44459;43.522;24.470;2023-04-07T08:09:44;100201.13;;;8.71;58.25
57572;BME280;44459;43.522;24.470;2023-04-07T08:12:10;100198.44;;;8.64;58.59
57572;BME280;44459;43.522;24.470;2023-04-07T08:14:35;100203.91;;;8.80;59.58
57572;BME280;44459;43.522;24.470;2023-04-07T08:17:00;100203.63;;;8.59;58.16
57572;BME280;44459;43.522;24.470;2023-04-07T08:19:26;100203.53;;;8.53;57.88
57572;BME280;44459;43.522;24.470;2023-04-07T08:21:51;100200.66;;;8.35;59.41
57572;BME280;44459;43.522;24.470;2023-04-07T08:24:17;100205.91;;;8.35;60.21
57572;BME280;44459;43.522;24.470;2023-04-07T08:26:43;100198.88;;;8.34;61.76
57572;BME280;44459;43.522;24.470;2023-04-07T08:29:09;100202.25;;;8.25;60.28
57572;BME280;44459;43.522;24.470;2023-04-07T08:31:35;100210.94;;;8.21;61.34
57572;BME280;44459;43.522;24.470;2023-04-07T08:34:00;100204.09;;;8.31;61.14
57572;BME280;44459;43.522;24.470;2023-04-07T08:36:26;100204.94;;;8.30;61.97
57572;BME280;44459;43.522;24.470;2023-04-07T08:38:53;100201.50;;;8.32;62.84
57572;BME280;44459;43.522;24.470;2023-04-07T08:41:38;100205.03;;;8.33;63.02
57572;BME280;44459;43.522;24.470;2023-04-07T08:44:03;100210.97;;;8.24;61.12
57572;BME280;44459;43.522;24.470;2023-04-07T08:46:29;100200.41;;;8.21;61.59
57572;BME280;44459;43.522;24.470;2023-04-07T08:48:56;100209.03;;;8.11;61.24
57572;BME280;44459;43.522;24.470;2023-04-07T08:51:29;100213.22;;;8.00;61.96
57572;BME280;44459;43.522;24.470;2023-04-07T08:54:12;100216.66;;;7.96;62.40
57572;BME280;44459;43.522;24.470;2023-04-07T08:56:39;100213.91;;;7.88;62.01
57572;BME280;44459;43.522;24.470;2023-04-07T08:59:12;100214.84;;;7.92;62.29
57572;BME280;44459;43.522;24.470;2023-04-07T09:01:38;100208.78;;;7.94;63.70
57572;BME280;44459;43.522;24.470;2023-04-07T09:04:04;100213.34;;;8.07;64.09
57572;BME280;44459;43.522;24.470;2023-04-07T09:06:32;100209.91;;;8.12;63.90
57572;BME280;44459;43.522;24.470;2023-04-07T09:08:58;100214.47;;;8.23;63.76
57572;BME280;44459;43.522;24.470;2023-04-07T09:11:28;100211.88;;;8.26;63.62
57572;BME280;44459;43.522;24.470;2023-04-07T09:13:54;100203.19;;;8.29;63.76
57572;BME280;44459;43.522;24.470;2023-04-07T09:16:20;100215.63;;;8.39;62.76
57572;BME280;44459;43.522;24.470;2023-04-07T09:18:46;100216.34;;;8.30;62.88
57572;BME280;44459;43.522;24.470;2023-04-07T09:21:12;100222.59;;;8.37;64.22
57572;BME280;44459;43.522;24.470;2023-04-07T09:23:39;100219.09;;;8.38;62.93
57572;BME280;44459;43.522;24.470;2023-04-07T09:28:43;100218.84;;;8.83;62.74
57572;BME280;44459;43.522;24.470;2023-04-07T09:31:09;100218.84;;;8.81;62.26
57572;BME280;44459;43.522;24.470;2023-04-07T09:33:35;100211.00;;;8.89;60.56
57572;BME280;44459;43.522;24.470;2023-04-07T09:36:04;100216.38;;;8.96;61.43
57572;BME280;44459;43.522;24.470;2023-04-07T09:38:37;100219.94;;;8.98;62.07
57572;BME280;44459;43.522;24.470;2023-04-07T09:43:35;100230.06;;;8.71;60.68
57572;BME280;44459;43.522;24.470;2023-04-07T09:46:11;100235.31;;;8.68;61.27
57572;BME280;44459;43.522;24.470;2023-04-07T09:48:38;100218.47;;;8.55;61.68
57572;BME280;44459;43.522;24.470;2023-04-07T09:51:10;100228.81;;;8.42;59.88
57572;BME280;44459;43.522;24.470;2023-04-07T09:53:49;100232.28;;;8.41;60.73
57572;BME280;44459;43.522;24.470;2023-04-07T09:56:16;100226.34;;;8.54;59.95
57572;BME280;44459;43.522;24.470;2023-04-07T09:58:44;100236.19;;;8.69;59.83
57572;BME280;44459;43.522;24.470;2023-04-07T10:01:10;100234.44;;;8.68;59.88
57572;BME280;44459;43.522;24.470;2023-04-07T10:03:36;100236.28;;;8.73;60.61
57572;BME280;44459;43.522;24.470;2023-04-07T10:06:03;100235.34;;;8.71;61.85
57572;BME280;44459;43.522;24.470;2023-04-07T10:08:31;100236.84;;;8.54;62.03
57572;BME280;44459;43.522;24.470;2023-04-07T10:11:00;100241.88;;;8.36;62.60
57572;BME280;44459;43.522;24.470;2023-04-07T10:13:31;100243.41;;;8.25;63.60
57572;BME280;44459;43.522;24.470;2023-04-07T10:15:57;100247.75;;;8.21;64.45
57572;BME280;44459;43.522;24.470;2023-04-07T10:18:27;100250.56;;;8.32;62.34
57572;BME280;44459;43.522;24.470;2023-04-07T10:20:55;100239.44;;;8.49;60.97
57572;BME280;44459;43.522;24.470;2023-04-07T10:23:30;100247.31;;;8.48;61.87
57572;BME280;44459;43.522;24.470;2023-04-07T10:25:58;100245.69;;;8.57;61.96
57572;BME280;44459;43.522;24.470;2023-04-07T10:28:26;100247.34;;;8.51;62.16
57572;BME280;44459;43.522;24.470;2023-04-07T10:30:53;100245.94;;;8.76;62.28
57572;BME280;44459;43.522;24.470;2023-04-07T10:33:51;100245.31;;;8.92;61.56
57572;BME280;44459;43.522;24.470;2023-04-07T10:36:17;100244.59;;;9.06;63.01
57572;BME280;44459;43.522;24.470;2023-04-07T10:39:23;100247.28;;;9.11;60.66
57572;BME280;44459;43.522;24.470;2023-04-07T10:41:49;100243.81;;;9.15;60.32
57572;BME280;44459;43.522;24.470;2023-04-07T10:47:07;100237.69;;;9.18;60.29
57572;BME280;44459;43.522;24.470;2023-04-07T10:49:33;100236.84;;;9.20;60.44
57572;BME280;44459;43.522;24.470;2023-04-07T10:54:36;100246.69;;;9.35;57.50
57572;BME280;44459;43.522;24.470;2023-04-07T10:59:33;100241.56;;;9.51;58.68
57572;BME280;44459;43.522;24.470;2023-04-07T11:04:37;100239.59;;;9.31;56.60
57572;BME280;44459;43.522;24.470;2023-04-07T11:07:03;100246.66;;;9.32;58.39
57572;BME280;44459;43.522;24.470;2023-04-07T11:09:28;100254.56;;;9.33;59.04
57572;BME280;44459;43.522;24.470;2023-04-07T11:11:54;100255.50;;;9.37;59.76
57572;BME280;44459;43.522;24.470;2023-04-07T11:14:25;100245.09;;;9.50;58.62
57572;BME280;44459;43.522;24.470;2023-04-07T11:16:51;100245.25;;;9.67;58.58
57572;BME280;44459;43.522;24.470;2023-04-07T11:19:17;100254.44;;;10.08;57.99
57572;BME280;44459;43.522;24.470;2023-04-07T11:21:43;100245.06;;;10.44;57.77
57572;BME280;44459;43.522;24.470;2023-04-07T11:24:08;100249.50;;;10.48;56.91
57572;BME280;44459;43.522;24.470;2023-04-07T11:26:40;100254.66;;;10.36;57.86
57572;BME280;44459;43.522;24.470;2023-04-07T11:29:06;100249.03;;;9.96;57.68
57572;BME280;44459;43.522;24.470;2023-04-07T11:31:32;100249.00;;;9.90;60.00
57572;BME280;44459;43.522;24.470;2023-04-07T11:34:03;100252.13;;;9.51;60.80
57572;BME280;44459;43.522;24.470;2023-04-07T11:36:38;100260.78;;;10.27;58.82
57572;BME280;44459;43.522;24.470;2023-04-07T11:39:03;100251.66;;;9.96;59.70
57572;BME280;44459;43.522;24.470;2023-04-07T11:41:30;100242.59;;;9.64;60.54
57572;BME280;44459;43.522;24.470;2023-04-07T11:44:07;100246.22;;;9.77;61.85
57572;BME280;44459;43.522;24.470;2023-04-07T11:46:33;100262.84;;;9.70;61.50
57572;BME280;44459;43.522;24.470;2023-04-07T11:49:12;100259.09;;;9.48;63.14
57572;BME280;44459;43.522;24.470;2023-04-07T11:51:38;100264.09;;;9.24;62.54
57572;BME280;44459;43.522;24.470;2023-04-07T11:54:04;100267.88;;;8.76;64.56
57572;BME280;44459;43.522;24.470;2023-04-07T11:56:41;100266.25;;;8.84;65.66
57572;BME280;44459;43.522;24.470;2023-04-07T11:59:06;100268.97;;;8.90;64.77
57572;BME280;44459;43.522;24.470;2023-04-07T12:01:40;100259.50;;;9.04;64.75
57572;BME280;44459;43.522;24.470;2023-04-07T12:04:11;100267.50;;;9.14;65.49
57572;BME280;44459;43.522;24.470;2023-04-07T12:06:37;100273.50;;;9.02;64.61
57572;BME280;44459;43.522;24.470;2023-04-07T12:09:05;100261.78;;;8.79;65.76
57572;BME280;44459;43.522;24.470;2023-04-07T12:11:32;100274.25;;;8.33;67.46
57572;BME280;44459;43.522;24.470;2023-04-07T12:13:58;100275.13;;;8.34;68.30
57572;BME280;44459;43.522;24.470;2023-04-07T12:16:23;100274.38;;;8.39;67.44
57572;BME280;44459;43.522;24.470;2023-04-07T12:18:49;100275.94;;;8.30;65.56
57572;BME280;44459;43.522;24.470;2023-04-07T12:21:18;100282.00;;;8.26;66.39
57572;BME280;44459;43.522;24.470;2023-04-07T12:23:45;100286.78;;;7.98;68.49
57572;BME280;44459;43.522;24.470;2023-04-07T12:26:11;100284.19;;;8.00;70.30
57572;BME280;44459;43.522;24.470;2023-04-07T12:28:37;100283.13;;;7.87;69.47
57572;BME280;44459;43.522;24.470;2023-04-07T12:31:03;100285.66;;;7.83;71.14
57572;BME280;44459;43.522;24.470;2023-04-07T12:33:29;100283.56;;;7.65;71.23
57572;BME280;44459;43.522;24.470;2023-04-07T12:35:56;100286.28;;;7.70;71.09
57572;BME280;44459;43.522;24.470;2023-04-07T12:38:21;100281.09;;;7.74;69.68
57572;BME280;44459;43.522;24.470;2023-04-07T12:40:47;100291.50;;;7.68;70.51
57572;BME280;44459;43.522;24.470;2023-04-07T12:43:12;100288.03;;;7.69;69.81
57572;BME280;44459;43.522;24.470;2023-04-07T12:45:38;100295.13;;;7.73;69.26
57572;BME280;44459;43.522;24.470;2023-04-07T12:48:03;100278.41;;;7.71;69.29
57572;BME280;44459;43.522;24.470;2023-04-07T12:50:29;100282.72;;;7.66;69.06
57572;BME280;44459;43.522;24.470;2023-04-07T12:52:56;100292.50;;;7.75;68.79
57572;BME280;44459;43.522;24.470;2023-04-07T12:55:23;100293.69;;;7.92;68.61
57572;BME280;44459;43.522;24.470;2023-04-07T12:57:48;100288.66;;;8.05;68.57
57572;BME280;44459;43.522;24.470;2023-04-07T13:00:14;100286.16;;;8.12;68.87
57572;BME280;44459;43.522;24.470;2023-04-07T13:02:40;100283.63;;;8.18;67.78
57572;BME280;44459;43.522;24.470;2023-04-07T13:05:06;100288.94;;;8.21;68.49
57572;BME280;44459;43.522;24.470;2023-04-07T13:07:32;100285.53;;;8.28;67.41
57572;BME280;44459;43.522;24.470;2023-04-07T13:09:59;100290.81;;;8.28;67.83
57572;BME280;44459;43.522;24.470;2023-04-07T13:12:25;100294.13;;;8.18;67.29
57572;BME280;44459;43.522;24.470;2023-04-07T13:14:50;100294.03;;;8.12;68.66